sensor_id;sensor_type;location;lat;lon;timestamp;pressure;altitude;pressure_sealevel;temperature;humidity
77975;BME280;67164;51.202;0.278;2023-12-04T00:01:25;100145.40;;;21.96;37.40
77975;BME280;67164;51.202;0.278;2023-12-04T00:03:51;100144.39;;;21.36;37.61
77975;BME280;67164;51.202;0.278;2023-12-04T00:06:17;100145.30;;;21.77;37.53
77975;BME280;67164;51.202;0.278;2023-12-04T00:08:42;100143.21;;;21.62;37.72
77975;BME280;67164;51.202;0.278;2023-12-04T00:11:08;100142.51;;;21.69;37.61
77975;BME280;67164;51.202;0.278;2023-12-04T00:13:34;100139.81;;;21.59;37.66
77975;BME280;67164;51.202;0.278;2023-12-04T00:16:00;100140.24;;;21.30;37.86
77975;BME280;67164;51.202;0.278;2023-12-04T00:18:25;100130.53;;;21.68;37.91
77975;BME280;67164;51.202;0.278;2023-12-04T00:20:52;100121.89;;;20.83;38.05
77975;BME280;67164;51.202;0.278;2023-12-04T00:23:17;100123.55;;;21.38;37.97
77975;BME280;67164;51.202;0.278;2023-12-04T00:25:43;100123.03;;;21.68;37.83
77975;BME280;67164;51.202;0.278;2023-12-04T00:28:08;100119.22;;;21.38;37.85
77975;BME280;67164;51.202;0.278;2023-12-04T00:30:34;100115.15;;;21.14;38.05
77975;BME280;67164;51.202;0.278;2023-12-04T00:33:00;100105.45;;;21.00;37.98
77975;BME280;67164;51.202;0.278;2023-12-04T00:35:26;100098.79;;;21.22;37.97
77975;BME280;67164;51.202;0.278;2023-12-04T00:37:52;100090.17;;;20.79;37.87
77975;BME280;67164;51.202;0.278;2023-12-04T00:40:17;100088.43;;;21.19;37.97
77975;BME280;67164;51.202;0.278;2023-12-04T00:42:43;100079.83;;;21.51;37.87
77975;BME280;67164;51.202;0.278;2023-12-04T00:45:09;100076.80;;;21.27;37.87
77975;BME280;67164;51.202;0.278;2023-12-04T00:47:35;100069.27;;;21.40;37.98
77975;BME280;67164;51.202;0.278;2023-12-04T00:50:01;100067.30;;;20.92;37.92
77975;BME280;67164;51.202;0.278;2023-12-04T00:52:26;100062.03;;;21.50;37.71
77975;BME280;67164;51.202;0.278;2023-12-04T00:54:52;100060.09;;;20.58;37.94
77975;BME280;67164;51.202;0.278;2023-12-04T00:57:18;100053.71;;;21.47;37.68
77975;BME280;67164;51.202;0.278;2023-12-04T00:59:44;100051.53;;;21.37;37.66
77975;BME280;67164;51.202;0.278;2023-12-04T01:02:09;100042.90;;;21.38;37.73
77975;BME280;67164;51.202;0.278;2023-12-04T01:04:35;100039.37;;;20.97;37.99
77975;BME280;67164;51.202;0.278;2023-12-04T01:07:01;100034.35;;;21.31;37.67
77975;BME280;67164;51.202;0.278;2023-12-04T01:09:27;100029.46;;;21.04;37.72
77975;BME280;67164;51.202;0.278;2023-12-04T01:11:53;100023.51;;;21.11;37.60
77975;BME280;67164;51.202;0.278;2023-12-04T01:14:18;100023.63;;;21.25;37.74
77975;BME280;67164;51.202;0.278;2023-12-04T01:16:44;100014.10;;;21.26;37.68
77975;BME280;67164;51.202;0.278;2023-12-04T01:19:10;100008.59;;;21.35;37.45
77975;BME280;67164;51.202;0.278;2023-12-04T01:21:36;100003.60;;;21.41;37.40
77975;BME280;67164;51.202;0.278;2023-12-04T01:24:01;100000.60;;;21.25;37.21
77975;BME280;67164;51.202;0.278;2023-12-04T01:26:28;99988.42;;;21.36;36.97
77975;BME280;67164;51.202;0.278;2023-12-04T01:28:53;99990.56;;;20.69;37.11
77975;BME280;67164;51.202;0.278;2023-12-04T01:31:19;99978.72;;;21.40;36.82
77975;BME280;67164;51.202;0.278;2023-12-04T01:33:45;99974.14;;;21.40;37.05
77975;BME280;67164;51.202;0.278;2023-12-04T01:36:11;99968.40;;;21.60;36.74
77975;BME280;67164;51.202;0.278;2023-12-04T01:38:37;99962.42;;;21.57;37.11
77975;BME280;67164;51.202;0.278;2023-12-04T01:41:02;99958.03;;;21.23;36.91
77975;BME280;67164;51.202;0.278;2023-12-04T01:43:28;99957.34;;;21.57;36.77
77975;BME280;67164;51.202;0.278;2023-12-04T01:45:54;99956.23;;;21.41;36.56
77975;BME280;67164;51.202;0.278;2023-12-04T01:48:20;99953.12;;;21.86;36.66
77975;BME280;67164;51.202;0.278;2023-12-04T01:50:46;99950.61;;;21.85;36.33
77975;BME280;67164;51.202;0.278;2023-12-04T01:53:11;99945.76;;;21.51;36.41
77975;BME280;67164;51.202;0.278;2023-12-04T01:55:37;99945.37;;;21.67;36.42
77975;BME280;67164;51.202;0.278;2023-12-04T01:58:03;99941.91;;;21.30;36.52
77975;BME280;67164;51.202;0.278;2023-12-04T02:00:29;99937.95;;;21.66;36.39
77975;BME280;67164;51.202;0.278;2023-12-04T02:02:54;99934.66;;;21.58;36.18
77975;BME280;67164;51.202;0.278;2023-12-04T02:05:21;99931.22;;;21.69;36.26
77975;BME280;67164;51.202;0.278;2023-12-04T02:07:47;99920.12;;;22.03;36.15
77975;BME280;67164;51.202;0.278;2023-12-04T02:10:12;99915.29;;;21.92;35.98
77975;BME280;67164;51.202;0.278;2023-12-04T02:12:38;99915.52;;;21.76;36.12
77975;BME280;67164;51.202;0.278;2023-12-04T02:15:04;99912.77;;;21.70;35.90
77975;BME280;67164;51.202;0.278;2023-12-04T02:17:29;99908.39;;;21.89;35.92
77975;BME280;67164;51.202;0.278;2023-12-04T02:19:55;99905.38;;;21.60;35.94
77975;BME280;67164;51.202;0.278;2023-12-04T02:22:21;99894.71;;;21.86;35.90
77975;BME280;67164;51.202;0.278;2023-12-04T02:24:47;99897.44;;;21.84;35.90
77975;BME280;67164;51.202;0.278;2023-12-04T02:27:17;99885.32;;;21.98;35.71
77975;BME280;67164;51.202;0.278;2023-12-04T02:29:41;99883.58;;;22.13;35.76
77975;BME280;67164;51.202;0.278;2023-12-04T02:32:05;99874.51;;;21.46;35.69
77975;BME280;67164;51.202;0.278;2023-12-04T02:34:32;99875.11;;;21.91;35.68
77975;BME280;67164;51.202;0.278;2023-12-04T02:36:56;99864.81;;;21.63;35.73
77975;BME280;67164;51.202;0.278;2023-12-04T02:39:22;99860.55;;;22.26;35.54
77975;BME280;67164;51.202;0.278;2023-12-04T02:41:48;99853.54;;;22.15;35.53
77975;BME280;67164;51.202;0.278;2023-12-04T02:44:13;99852.68;;;21.37;35.91
77975;BME280;67164;51.202;0.278;2023-12-04T02:46:39;99849.11;;;22.09;35.63
77975;BME280;67164;51.202;0.278;2023-12-04T02:49:05;99852.37;;;21.91;35.81
77975;BME280;67164;51.202;0.278;2023-12-04T02:51:31;99850.12;;;21.78;35.73
77975;BME280;67164;51.202;0.278;2023-12-04T02:53:56;99845.42;;;21.89;35.58
77975;BME280;67164;51.202;0.278;2023-12-04T02:56:22;99834.54;;;22.06;35.58
77975;BME280;67164;51.202;0.278;2023-12-04T02:58:49;99830.94;;;22.08;35.53
77975;BME280;67164;51.202;0.278;2023-12-04T03:01:13;99821.50;;;21.76;35.66
77975;BME280;67164;51.202;0.278;2023-12-04T03:03:38;99814.43;;;22.13;35.54
77975;BME280;67164;51.202;0.278;2023-12-04T03:06:05;99804.84;;;22.05;35.54
77975;BME280;67164;51.202;0.278;2023-12-04T03:08:30;99800.38;;;21.79;35.46
77975;BME280;67164;51.202;0.278;2023-12-04T03:10:56;99793.82;;;21.61;35.73
77975;BME280;67164;51.202;0.278;2023-12-04T03:13:22;99782.67;;;21.93;35.56
77975;BME280;67164;51.202;0.278;2023-12-04T03:15:48;99778.72;;;21.73;35.82
77975;BME280;67164;51.202;0.278;2023-12-04T03:18:13;99770.38;;;21.79;35.63
77975;BME280;67164;51.202;0.278;2023-12-04T03:20:39;99758.62;;;21.78;35.61
77975;BME280;67164;51.202;0.278;2023-12-04T03:23:05;99748.97;;;21.59;35.60
77975;BME280;67164;51.202;0.278;2023-12-04T03:25:31;99739.02;;;21.53;35.89
77975;BME280;67164;51.202;0.278;2023-12-04T03:27:57;99729.18;;;21.72;35.69
77975;BME280;67164;51.202;0.278;2023-12-04T03:30:22;99725.76;;;21.74;35.68
77975;BME280;67164;51.202;0.278;2023-12-04T03:32:49;99719.50;;;21.69;35.76
77975;BME280;67164;51.202;0.278;2023-12-04T03:35:14;99714.80;;;21.52;35.62
77975;BME280;67164;51.202;0.278;2023-12-04T03:37:40;99704.71;;;21.72;35.62
77975;BME280;67164;51.202;0.278;2023-12-04T03:40:07;99695.01;;;21.79;35.61
77975;BME280;67164;51.202;0.278;2023-12-04T03:42:32;99691.64;;;21.79;35.55
77975;BME280;67164;51.202;0.278;2023-12-04T03:44:57;99686.54;;;21.61;35.65
77975;BME280;67164;51.202;0.278;2023-12-04T03:47:23;99693.15;;;21.65;35.56
77975;BME280;67164;51.202;0.278;2023-12-04T03:49:50;99683.72;;;21.58;35.76
77975;BME280;67164;51.202;0.278;2023-12-04T03:52:14;99671.80;;;21.64;35.61
77975;BME280;67164;51.202;0.278;2023-12-04T03:54:40;99672.14;;;21.42;35.68
77975;BME280;67164;51.202;0.278;2023-12-04T03:57:06;99661.73;;;21.60;35.59
77975;BME280;67164;51.202;0.278;2023-12-04T03:59:32;99650.34;;;22.05;35.62
77975;BME280;67164;51.202;0.278;2023-12-04T04:01:58;99650.38;;;21.32;35.72
77975;BME280;67164;51.202;0.278;2023-12-04T04:04:23;99647.92;;;21.53;35.57
77975;BME280;67164;51.202;0.278;2023-12-04T04:06:50;99643.08;;;21.14;35.78
77975;BME280;67164;51.202;0.278;2023-12-04T04:09:15;99638.95;;;21.50;35.71
77975;BME280;67164;51.202;0.278;2023-12-04T04:11:41;99638.19;;;21.74;35.61
77975;BME280;67164;51.202;0.278;2023-12-04T04:14:07;99634.36;;;21.50;35.53
77975;BME280;67164;51.202;0.278;2023-12-04T04:16:33;99632.90;;;21.35;35.61
77975;BME280;67164;51.202;0.278;2023-12-04T04:18:58;99637.02;;;21.09;35.92
77975;BME280;67164;51.202;0.278;2023-12-04T04:21:24;99638.80;;;21.23;35.95
77975;BME280;67164;51.202;0.278;2023-12-04T04:23:51;99638.94;;;21.22;35.88
77975;BME280;67164;51.202;0.278;2023-12-04T04:26:16;99642.66;;;21.20;35.73
77975;BME280;67164;51.202;0.278;2023-12-04T04:28:42;99641.74;;;21.14;35.83
77975;BME280;67164;51.202;0.278;2023-12-04T04:31:08;99641.23;;;21.67;35.82
77975;BME280;67164;51.202;0.278;2023-12-04T04:33:33;99639.85;;;21.45;35.76
77975;BME280;67164;51.202;0.278;2023-12-04T04:35:59;99630.76;;;20.99;35.86
77975;BME280;67164;51.202;0.278;2023-12-04T04:38:25;99629.08;;;21.64;35.84
77975;BME280;67164;51.202;0.278;2023-12-04T04:40:51;99628.48;;;21.03;35.94
77975;BME280;67164;51.202;0.278;2023-12-04T04:43:17;99621.57;;;20.98;35.96
77975;BME280;67164;51.202;0.278;2023-12-04T04:45:43;99619.96;;;21.51;35.83
77975;BME280;67164;51.202;0.278;2023-12-04T04:48:08;99611.77;;;20.93;36.01
77975;BME280;67164;51.202;0.278;2023-12-04T04:50:34;99609.73;;;21.17;35.96
77975;BME280;67164;51.202;0.278;2023-12-04T04:53:00;99605.74;;;21.05;35.90
77975;BME280;67164;51.202;0.278;2023-12-04T04:55:26;99605.23;;;21.06;35.85
77975;BME280;67164;51.202;0.278;2023-12-04T04:57:52;99601.94;;;20.91;35.85
77975;BME280;67164;51.202;0.278;2023-12-04T05:00:18;99600.20;;;21.14;36.06
77975;BME280;67164;51.202;0.278;2023-12-04T05:02:43;99596.57;;;21.00;36.04
77975;BME280;67164;51.202;0.278;2023-12-04T05:05:11;99600.04;;;20.81;35.97
77975;BME280;67164;51.202;0.278;2023-12-04T05:07:35;99603.94;;;21.24;35.85
77975;BME280;67164;51.202;0.278;2023-12-04T05:10:01;99599.72;;;20.58;36.20
77975;BME280;67164;51.202;0.278;2023-12-04T05:12:27;99593.70;;;21.09;36.25
77975;BME280;67164;51.202;0.278;2023-12-04T05:14:52;99593.18;;;20.79;36.10
77975;BME280;67164;51.202;0.278;2023-12-04T05:17:18;99588.61;;;21.14;36.11
77975;BME280;67164;51.202;0.278;2023-12-04T05:19:44;99587.55;;;20.67;36.23
77975;BME280;67164;51.202;0.278;2023-12-04T05:22:10;99589.36;;;20.82;36.35
77975;BME280;67164;51.202;0.278;2023-12-04T05:24:36;99581.14;;;20.90;36.02
77975;BME280;67164;51.202;0.278;2023-12-04T05:27:02;99575.76;;;20.77;36.15
77975;BME280;67164;51.202;0.278;2023-12-04T05:29:27;99570.19;;;21.31;35.89
77975;BME280;67164;51.202;0.278;2023-12-04T05:31:53;99565.53;;;20.59;36.24
77975;BME280;67164;51.202;0.278;2023-12-04T05:34:19;99564.51;;;21.04;36.16
77975;BME280;67164;51.202;0.278;2023-12-04T05:36:45;99551.97;;;20.78;36.16
77975;BME280;67164;51.202;0.278;2023-12-04T05:39:11;99551.82;;;20.73;36.14
77975;BME280;67164;51.202;0.278;2023-12-04T05:41:36;99546.53;;;21.09;36.14
77975;BME280;67164;51.202;0.278;2023-12-04T05:44:03;99551.33;;;20.67;36.29
77975;BME280;67164;51.202;0.278;2023-12-04T05:46:28;99549.13;;;20.68;36.37
77975;BME280;67164;51.202;0.278;2023-12-04T05:48:54;99548.30;;;20.61;36.15
77975;BME280;67164;51.202;0.278;2023-12-04T05:51:20;99546.34;;;20.98;36.28
77975;BME280;67164;51.202;0.278;2023-12-04T05:53:46;99544.19;;;20.54;36.30
77975;BME280;67164;51.202;0.278;2023-12-04T05:56:12;99548.16;;;20.87;36.29
77975;BME280;67164;51.202;0.278;2023-12-04T05:58:37;99544.26;;;21.05;36.02
77975;BME280;67164;51.202;0.278;2023-12-04T06:01:04;99540.03;;;20.67;36.18
77975;BME280;67164;51.202;0.278;2023-12-04T06:03:29;99532.10;;;20.44;36.13
77975;BME280;67164;51.202;0.278;2023-12-04T06:05:55;99527.60;;;20.40;36.13
77975;BME280;67164;51.202;0.278;2023-12-04T06:08:21;99520.67;;;20.91;36.03
77975;BME280;67164;51.202;0.278;2023-12-04T06:10:47;99510.27;;;21.03;36.10
77975;BME280;67164;51.202;0.278;2023-12-04T06:13:12;99513.83;;;20.14;37.10
77975;BME280;67164;51.202;0.278;2023-12-04T06:15:38;99510.88;;;20.85;35.99
77975;BME280;67164;51.202;0.278;2023-12-04T06:18:04;99510.03;;;20.65;36.23
77975;BME280;67164;51.202;0.278;2023-12-04T06:20:30;99508.87;;;20.28;36.56
77975;BME280;67164;51.202;0.278;2023-12-04T06:22:56;99505.62;;;20.84;36.22
77975;BME280;67164;51.202;0.278;2023-12-04T06:25:22;99500.68;;;20.55;36.49
77975;BME280;67164;51.202;0.278;2023-12-04T06:27:49;99496.96;;;20.09;36.66
77975;BME280;67164;51.202;0.278;2023-12-04T06:30:14;99497.30;;;19.99;36.94
77975;BME280;67164;51.202;0.278;2023-12-04T06:32:40;99493.88;;;21.13;36.21
77975;BME280;67164;51.202;0.278;2023-12-04T06:35:06;99487.91;;;20.81;36.16
77975;BME280;67164;51.202;0.278;2023-12-04T06:37:31;99483.20;;;21.07;36.41
77975;BME280;67164;51.202;0.278;2023-12-04T06:39:59;99477.50;;;20.73;36.35
77975;BME280;67164;51.202;0.278;2023-12-04T06:42:23;99475.55;;;20.83;36.56
77975;BME280;67164;51.202;0.278;2023-12-04T06:44:49;99470.91;;;20.83;36.65
77975;BME280;67164;51.202;0.278;2023-12-04T06:47:17;99467.60;;;20.84;36.66
77975;BME280;67164;51.202;0.278;2023-12-04T06:49:40;99464.82;;;20.82;36.77
77975;BME280;67164;51.202;0.278;2023-12-04T06:52:06;99458.88;;;21.03;36.49
77975;BME280;67164;51.202;0.278;2023-12-04T06:54:32;99460.39;;;21.17;36.37
77975;BME280;67164;51.202;0.278;2023-12-04T06:56:57;99457.91;;;20.69;36.31
77975;BME280;67164;51.202;0.278;2023-12-04T06:59:23;99452.81;;;21.20;36.27
77975;BME280;67164;51.202;0.278;2023-12-04T07:01:50;99450.85;;;20.94;36.30
77975;BME280;67164;51.202;0.278;2023-12-04T07:04:16;99448.57;;;21.15;36.43
77975;BME280;67164;51.202;0.278;2023-12-04T07:06:41;99445.09;;;20.93;36.44
77975;BME280;67164;51.202;0.278;2023-12-04T07:09:07;99444.76;;;21.14;36.42
77975;BME280;67164;51.202;0.278;2023-12-04T07:11:32;99441.06;;;21.18;36.40
77975;BME280;67164;51.202;0.278;2023-12-04T07:13:59;99442.72;;;21.27;36.30
77975;BME280;67164;51.202;0.278;2023-12-04T07:16:24;99439.65;;;21.29;36.30
77975;BME280;67164;51.202;0.278;2023-12-04T07:18:50;99442.53;;;20.91;36.57
77975;BME280;67164;51.202;0.278;2023-12-04T07:21:16;99437.28;;;21.23;36.44
77975;BME280;67164;51.202;0.278;2023-12-04T07:23:42;99438.75;;;21.26;36.42
77975;BME280;67164;51.202;0.278;2023-12-04T07:26:08;99437.65;;;21.05;36.74
77975;BME280;67164;51.202;0.278;2023-12-04T07:28:33;99435.03;;;20.60;37.15
77975;BME280;67164;51.202;0.278;2023-12-04T07:30:59;99442.46;;;20.60;37.43
77975;BME280;67164;51.202;0.278;2023-12-04T07:33:25;99440.65;;;20.75;37.78
77975;BME280;67164;51.202;0.278;2023-12-04T07:35:51;99435.51;;;20.08;38.34
77975;BME280;67164;51.202;0.278;2023-12-04T07:38:17;99439.83;;;20.48;38.58
77975;BME280;67164;51.202;0.278;2023-12-04T07:40:42;99439.13;;;20.56;38.75
77975;BME280;67164;51.202;0.278;2023-12-04T07:43:08;99440.59;;;20.47;38.93
77975;BME280;67164;51.202;0.278;2023-12-04T07:45:34;99433.97;;;20.57;38.79
77975;BME280;67164;51.202;0.278;2023-12-04T07:48:00;99431.62;;;20.63;38.98
77975;BME280;67164;51.202;0.278;2023-12-04T07:50:25;99426.91;;;20.70;38.60
77975;BME280;67164;51.202;0.278;2023-12-04T07:52:52;99433.38;;;20.04;39.07
77975;BME280;67164;51.202;0.278;2023-12-04T07:55:17;99430.63;;;20.29;39.15
77975;BME280;67164;51.202;0.278;2023-12-04T07:57:43;99434.85;;;20.68;38.83
77975;BME280;67164;51.202;0.278;2023-12-04T08:00:10;99435.35;;;20.67;38.97
77975;BME280;67164;51.202;0.278;2023-12-04T08:02:35;99434.34;;;21.08;38.64
77975;BME280;67164;51.202;0.278;2023-12-04T08:05:01;99437.50;;;20.63;38.77
77975;BME280;67164;51.202;0.278;2023-12-04T08:07:26;99431.72;;;21.03;38.58
77975;BME280;67164;51.202;0.278;2023-12-04T08:09:52;99433.38;;;20.52;38.45
77975;BME280;67164;51.202;0.278;2023-12-04T08:12:18;99431.85;;;20.99;37.97
77975;BME280;67164;51.202;0.278;2023-12-04T08:14:44;99429.19;;;21.09;38.25
77975;BME280;67164;51.202;0.278;2023-12-04T08:17:10;99427.59;;;20.85;38.33
77975;BME280;67164;51.202;0.278;2023-12-04T08:19:35;99420.37;;;20.99;38.01
77975;BME280;67164;51.202;0.278;2023-12-04T08:22:01;99417.80;;;21.20;38.33
77975;BME280;67164;51.202;0.278;2023-12-04T08:24:27;99418.22;;;21.02;38.61
77975;BME280;67164;51.202;0.278;2023-12-04T08:26:53;99412.74;;;20.26;38.79
77975;BME280;67164;51.202;0.278;2023-12-04T08:29:18;99409.67;;;21.04;38.76
77975;BME280;67164;51.202;0.278;2023-12-04T08:31:44;99406.81;;;20.93;39.07
77975;BME280;67164;51.202;0.278;2023-12-04T08:34:10;99404.16;;;20.99;38.97
77975;BME280;67164;51.202;0.278;2023-12-04T08:36:37;99405.92;;;20.85;39.13
77975;BME280;67164;51.202;0.278;2023-12-04T08:39:02;99408.07;;;20.60;39.24
77975;BME280;67164;51.202;0.278;2023-12-04T08:41:28;99402.05;;;20.70;39.63
77975;BME280;67164;51.202;0.278;2023-12-04T08:43:54;99405.10;;;20.10;39.54
77975;BME280;67164;51.202;0.278;2023-12-04T08:46:19;99409.77;;;20.71;39.50
77975;BME280;67164;51.202;0.278;2023-12-04T08:48:45;99409.88;;;21.01;39.44
77975;BME280;67164;51.202;0.278;2023-12-04T08:51:15;99399.66;;;20.83;39.32
77975;BME280;67164;51.202;0.278;2023-12-04T08:53:37;99400.50;;;21.12;39.16
77975;BME280;67164;51.202;0.278;2023-12-04T08:56:03;99398.31;;;20.91;39.04
77975;BME280;67164;51.202;0.278;2023-12-04T08:58:28;99395.78;;;20.96;38.84
77975;BME280;67164;51.202;0.278;2023-12-04T09:00:54;99392.85;;;21.17;38.77
77975;BME280;67164;51.202;0.278;2023-12-04T09:03:20;99391.45;;;21.20;38.67
77975;BME280;67164;51.202;0.278;2023-12-04T09:05:46;99391.09;;;21.11;38.68
77975;BME280;67164;51.202;0.278;2023-12-04T09:08:12;99386.96;;;21.04;38.93
77975;BME280;67164;51.202;0.278;2023-12-04T09:10:37;99385.76;;;21.19;39.11
77975;BME280;67164;51.202;0.278;2023-12-04T09:13:03;99387.86;;;20.78;38.81
77975;BME280;67164;51.202;0.278;2023-12-04T09:15:29;99388.03;;;21.14;38.60
77975;BME280;67164;51.202;0.278;2023-12-04T09:17:55;99390.45;;;20.39;38.56
77975;BME280;67164;51.202;0.278;2023-12-04T09:20:21;99387.80;;;20.99;38.70
77975;BME280;67164;51.202;0.278;2023-12-04T09:22:47;99390.79;;;21.09;38.95
77975;BME280;67164;51.202;0.278;2023-12-04T09:25:13;99391.38;;;20.87;38.94
77975;BME280;67164;51.202;0.278;2023-12-04T09:27:39;99387.92;;;21.15;38.87
77975;BME280;67164;51.202;0.278;2023-12-04T09:30:05;99389.70;;;20.68;38.93
77975;BME280;67164;51.202;0.278;2023-12-04T09:32:30;99387.88;;;20.97;38.83
77975;BME280;67164;51.202;0.278;2023-12-04T09:34:56;99388.01;;;20.79;38.80
77975;BME280;67164;51.202;0.278;2023-12-04T09:37:22;99386.44;;;20.98;38.84
77975;BME280;67164;51.202;0.278;2023-12-04T09:39:48;99386.55;;;20.95;38.92
77975;BME280;67164;51.202;0.278;2023-12-04T09:42:14;99385.10;;;20.94;38.99
77975;BME280;67164;51.202;0.278;2023-12-04T09:44:40;99382.98;;;21.29;38.87
77975;BME280;67164;51.202;0.278;2023-12-04T09:47:05;99382.13;;;20.90;39.19
77975;BME280;67164;51.202;0.278;2023-12-04T09:49:31;99381.06;;;20.95;39.21
77975;BME280;67164;51.202;0.278;2023-12-04T09:51:57;99381.50;;;20.87;39.35
77975;BME280;67164;51.202;0.278;2023-12-04T09:54:22;99379.88;;;20.92;39.27
77975;BME280;67164;51.202;0.278;2023-12-04T09:56:49;99380.61;;;20.89;39.34
77975;BME280;67164;51.202;0.278;2023-12-04T09:59:15;99380.76;;;21.09;39.19
77975;BME280;67164;51.202;0.278;2023-12-04T10:01:40;99383.81;;;21.40;39.02
77975;BME280;67164;51.202;0.278;2023-12-04T10:04:06;99378.30;;;20.98;39.23
77975;BME280;67164;51.202;0.278;2023-12-04T10:06:32;99376.06;;;21.07;39.18
77975;BME280;67164;51.202;0.278;2023-12-04T10:08:57;99376.31;;;21.11;39.06
77975;BME280;67164;51.202;0.278;2023-12-04T10:11:23;99375.48;;;21.20;39.27
77975;BME280;67164;51.202;0.278;2023-12-04T10:13:50;99377.56;;;20.73;39.32
77975;BME280;67164;51.202;0.278;2023-12-04T10:16:15;99376.99;;;20.92;39.45
77975;BME280;67164;51.202;0.278;2023-12-04T10:18:41;99375.73;;;20.88;39.57
77975;BME280;67164;51.202;0.278;2023-12-04T10:21:06;99377.54;;;21.09;39.16
77975;BME280;67164;51.202;0.278;2023-12-04T10:23:37;99373.22;;;21.10;39.19
77975;BME280;67164;51.202;0.278;2023-12-04T10:26:00;99372.28;;;21.00;38.93
77975;BME280;67164;51.202;0.278;2023-12-04T10:28:24;99369.81;;;21.13;38.79
77975;BME280;67164;51.202;0.278;2023-12-04T10:30:53;99370.15;;;21.08;38.82
77975;BME280;67164;51.202;0.278;2023-12-04T10:33:16;99364.93;;;21.29;38.91
77975;BME280;67164;51.202;0.278;2023-12-04T10:35:41;99363.07;;;21.24;38.94
77975;BME280;67164;51.202;0.278;2023-12-04T10:38:08;99360.17;;;21.47;38.93
77975;BME280;67164;51.202;0.278;2023-12-04T10:40:34;99357.40;;;21.36;38.78
77975;BME280;67164;51.202;0.278;2023-12-04T10:43:11;99353.86;;;21.30;38.80
77975;BME280;67164;51.202;0.278;2023-12-04T10:45:25;99350.80;;;21.33;38.82
77975;BME280;67164;51.202;0.278;2023-12-04T10:47:51;99345.64;;;21.56;38.83
77975;BME280;67164;51.202;0.278;2023-12-04T10:50:17;99341.39;;;20.99;39.02
77975;BME280;67164;51.202;0.278;2023-12-04T10:52:44;99335.69;;;21.40;38.73
77975;BME280;67164;51.202;0.278;2023-12-04T10:55:11;99330.26;;;21.60;38.55
77975;BME280;67164;51.202;0.278;2023-12-04T10:57:37;99328.07;;;21.50;38.32
77975;BME280;67164;51.202;0.278;2023-12-04T11:00:03;99320.92;;;21.57;38.21
77975;BME280;67164;51.202;0.278;2023-12-04T11:02:26;99313.60;;;21.51;38.30
77975;BME280;67164;51.202;0.278;2023-12-04T11:04:55;99311.63;;;21.48;38.07
77975;BME280;67164;51.202;0.278;2023-12-04T11:07:18;99305.36;;;21.71;37.96
77975;BME280;67164;51.202;0.278;2023-12-04T11:09:43;99302.71;;;21.87;38.11
77975;BME280;67164;51.202;0.278;2023-12-04T11:12:11;99301.70;;;21.44;38.31
77975;BME280;67164;51.202;0.278;2023-12-04T11:14:39;99300.95;;;21.46;38.19
77975;BME280;67164;51.202;0.278;2023-12-04T11:17:03;99298.80;;;21.42;38.21
77975;BME280;67164;51.202;0.278;2023-12-04T11:19:29;99298.81;;;21.37;38.27
77975;BME280;67164;51.202;0.278;2023-12-04T11:21:53;99298.53;;;20.91;38.22
77975;BME280;67164;51.202;0.278;2023-12-04T11:24:18;99295.64;;;21.73;38.06
77975;BME280;67164;51.202;0.278;2023-12-04T11:26:44;99295.00;;;21.13;38.22
77975;BME280;67164;51.202;0.278;2023-12-04T11:29:10;99290.48;;;21.28;38.31
77975;BME280;67164;51.202;0.278;2023-12-04T11:31:36;99286.00;;;21.53;38.27
77975;BME280;67164;51.202;0.278;2023-12-04T11:34:02;99287.62;;;21.57;38.20
77975;BME280;67164;51.202;0.278;2023-12-04T11:36:28;99285.39;;;21.74;38.27
77975;BME280;67164;51.202;0.278;2023-12-04T11:38:53;99281.37;;;20.96;38.32
77975;BME280;67164;51.202;0.278;2023-12-04T11:41:20;99283.62;;;21.57;38.12
77975;BME280;67164;51.202;0.278;2023-12-04T11:43:45;99283.11;;;21.25;38.25
77975;BME280;67164;51.202;0.278;2023-12-04T11:46:11;99282.53;;;21.31;38.16
77975;BME280;67164;51.202;0.278;2023-12-04T11:48:36;99274.76;;;21.25;38.23
77975;BME280;67164;51.202;0.278;2023-12-04T11:51:02;99276.23;;;21.26;38.25
77975;BME280;67164;51.202;0.278;2023-12-04T11:53:27;99270.36;;;21.26;38.25
77975;BME280;67164;51.202;0.278;2023-12-04T11:55:56;99266.02;;;20.81;38.17
77975;BME280;67164;51.202;0.278;2023-12-04T11:58:22;99264.38;;;21.55;38.12
77975;BME280;67164;51.202;0.278;2023-12-04T12:00:46;99262.86;;;21.42;37.98
77975;BME280;67164;51.202;0.278;2023-12-04T12:03:11;99260.10;;;21.34;38.03
77975;BME280;67164;51.202;0.278;2023-12-04T12:05:37;99259.68;;;21.41;37.93
77975;BME280;67164;51.202;0.278;2023-12-04T12:08:03;99259.98;;;21.64;37.98
77975;BME280;67164;51.202;0.278;2023-12-04T12:10:29;99257.30;;;21.82;37.81
77975;BME280;67164;51.202;0.278;2023-12-04T12:12:54;99252.18;;;21.92;37.61
77975;BME280;67164;51.202;0.278;2023-12-04T12:15:20;99252.74;;;21.81;37.37
77975;BME280;67164;51.202;0.278;2023-12-04T12:17:46;99250.89;;;22.05;37.26
77975;BME280;67164;51.202;0.278;2023-12-04T12:20:13;99248.77;;;21.89;37.18
77975;BME280;67164;51.202;0.278;2023-12-04T12:22:38;99242.43;;;22.03;36.97
77975;BME280;67164;51.202;0.278;2023-12-04T12:25:04;99243.15;;;21.86;37.16
77975;BME280;67164;51.202;0.278;2023-12-04T12:27:34;99240.93;;;21.67;37.45
77975;BME280;67164;51.202;0.278;2023-12-04T12:29:54;99241.75;;;21.86;37.18
77975;BME280;67164;51.202;0.278;2023-12-04T12:32:21;99240.02;;;21.76;37.44
77975;BME280;67164;51.202;0.278;2023-12-04T12:34:53;99237.51;;;21.87;37.74
77975;BME280;67164;51.202;0.278;2023-12-04T12:37:12;99232.96;;;21.41;37.75
77975;BME280;67164;51.202;0.278;2023-12-04T12:39:38;99231.99;;;21.63;37.90
77975;BME280;67164;51.202;0.278;2023-12-04T12:42:04;99233.35;;;21.57;38.19
77975;BME280;67164;51.202;0.278;2023-12-04T12:44:36;99229.07;;;21.57;38.20
77975;BME280;67164;51.202;0.278;2023-12-04T12:46:55;99225.17;;;21.12;38.28
77975;BME280;67164;51.202;0.278;2023-12-04T12:49:21;99221.72;;;21.61;38.37
77975;BME280;67164;51.202;0.278;2023-12-04T12:51:47;99219.73;;;21.68;38.33